Baker, Indiana
Current Conditions -  °F | °C
As of 10:53 AM on Thursday 23 Oct 2014 (Local Time) from KBMG Reporting Station
Clear Clear  
Wind Chill: 45°   Ceiling: Unl
Heat Index: 48°   Visibility: 10mi
Dew Point: 42°   Wind: 7mph
Humidity: 80%   Direction: 150°SSE
Pressure: 30.26"   Gusts: NA
Location:  39.3406°N, 86.657°W
Report Text: KBMG 231453Z 15006KT 10SM CLR 09/06 A3026 RMK AO2 SLP249 I3001 T00890056 51004
Loading
Personal Weather Stations






























Interactive Weather Map
Tropical Storm Tracking
New forecast layout! Learn more

10-Day Weather Forecast

Advertisements
Track Severe Weather on mobile